Terminal Aerodrome Forecast
Issued by NWS Sioux Falls, SD

Home | Current Version | Previous Version | Graphics & Text | Print | Product List | Glossary On
Versions: 1 2 3 4 5 6 7 8 9 10 11 12 13 14 15 16 17
000
FTUS43 KFSD 191100
TAFHON
TAF
KHON 191122Z 1912/2012 VRB05KT P6SM SCT060 BKN200
     FM191500 09006KT P6SM SCT150
     FM192000 13010KT P6SM BKN120
     FM200200 15008KT P6SM SCT120
     FM200500 17010KT P6SM BKN090=

USA.gov is the U.S. government's official web portal to all federal, state and local government web resources and services.